Waverly, MN (55390)

4:33 AM CDT on May 25, 2015 (GMT -0500)
KMNHOWAR2 | | Change Station
CLOSE
Current Station
Personal Weather Station
Location: Howard Lake, MN
Elevation: 1014 ft
Nearby Weather Stations

Elev 1014 ft 45.06 °N, 94.08 °W | Updated 4 minutes ago

Overcast
Overcast
57.5 °F
Feels Like 57.5 °F
N
0.0
Wind Variable Wind from North

Today
High -- | Low -- °F
--% Chance of Precip.
Yesterday
High -- | Low -- °F
Precip. -- in
5:37 AM 8:49 PM
Waxing Crescent, 47% visible
Pressure 29.69 in
Visibility 2.5 miles
Clouds Overcast 500 ft
Dew Point 57 °F
Humidity 97%
Rainfall 0.02 in
Snow Depth Not available.
UV 0.0 out of 12
Pollen 5.60 out of 12
Air Quality Not available.
Flu Activity Sporadic
METAR KCFE 250914Z AUTO 05005KT 2 1/2SM BR OVC005 14/13 A2969 RMK AO2 T01380127

More Conditions Fewer Conditions

Pressure 29.69 in
Visibility 2.5 miles
Clouds Overcast 500 ft
Dew Point 57 °F
Humidity 97%
Rainfall 0.02 in
Snow Depth Not available.
UV 0.0 out of 12
Pollen 5.60 out of 12
Air Quality Not available.
Flu Activity Sporadic
METAR KCFE 250914Z AUTO 05005KT 2 1/2SM BR OVC005 14/13 A2969 RMK AO2 T01380127

More Conditions Fewer Conditions

10-Day Weather Forecast

Almanac

Astronomy

May. 25, 2015 Rise Set
Actual Time
Civil Twilight
Nautical Twilight
Astronomical Twilight
Moon
Length of Visible Light
Length of Day
Tomorrow will be .
, % of the Moon is Illuminated

Today's Extremes

State Highs State Lows

Community

WunderPhotos

Upload Photos

1,823,960 photos uploaded!

WunderBlogs® & News

Nearby

Air Quality

  Air Quality AQ Index Pollutant
Not available.

Snow Depth

Station Depth Elevation

Earthquake Activity

City Distance Mag. Time & Date
Minimum magnitude displayed is 2.5.

Coastal Water Temperatures

Place Temperature

Stations

Nearby Weather Stations

Station Location Temp. Windchill Dew Point Humidity Wind Precip. Elev Updated Type